createdAt,value
2022-12-31T00:01:54.848Z,6.26
2022-12-31T00:04:27.690Z,6.26
2022-12-31T00:06:57.813Z,6.26
2022-12-31T00:09:28.721Z,6.24
2022-12-31T00:11:58.997Z,6.19
2022-12-31T00:14:29.162Z,6.20
2022-12-31T00:16:59.554Z,6.21
2022-12-31T00:19:32.826Z,6.21
2022-12-31T00:22:03.038Z,6.21
2022-12-31T00:24:35.953Z,6.19
2022-12-31T00:27:06.352Z,6.22
2022-12-31T00:29:36.969Z,6.21
2022-12-31T00:32:09.579Z,6.20
2022-12-31T00:34:42.478Z,6.22
2022-12-31T00:37:16.913Z,6.22
2022-12-31T00:39:47.068Z,6.21
2022-12-31T00:42:17.326Z,6.18
2022-12-31T00:44:47.676Z,6.18
2022-12-31T00:47:17.922Z,6.17
2022-12-31T00:49:50.769Z,6.18
2022-12-31T00:52:22.049Z,6.13
2022-12-31T00:54:52.239Z,6.09
2022-12-31T00:57:22.446Z,6.07
2022-12-31T00:59:52.966Z,6.08
2022-12-31T01:02:23.822Z,6.09
2022-12-31T01:04:56.931Z,6.14
2022-12-31T01:07:27.225Z,6.09
2022-12-31T01:09:57.792Z,6.17
2022-12-31T01:12:28.115Z,6.16
2022-12-31T01:14:58.238Z,6.18
2022-12-31T01:17:28.464Z,6.16
2022-12-31T01:20:01.649Z,6.20
2022-12-31T01:22:33.141Z,6.20
2022-12-31T01:25:03.353Z,6.19
2022-12-31T01:27:33.582Z,6.20
2022-12-31T01:30:03.776Z,6.19
2022-12-31T01:32:34.748Z,6.19
2022-12-31T01:35:08.331Z,6.22
2022-12-31T01:37:39.188Z,6.22
2022-12-31T01:40:10.582Z,6.22
2022-12-31T01:42:40.947Z,6.24
2022-12-31T01:45:15.024Z,6.23
2022-12-31T01:47:46.669Z,6.23
2022-12-31T01:50:24.102Z,6.23
2022-12-31T01:52:57.781Z,6.24
2022-12-31T01:55:33.303Z,6.24
2022-12-31T01:58:08.115Z,6.25
2022-12-31T02:00:38.819Z,6.25
2022-12-31T02:03:10.637Z,6.24
2022-12-31T02:05:50.214Z,6.27
2022-12-31T02:08:21.039Z,6.27
2022-12-31T02:10:51.249Z,6.27
2022-12-31T02:13:21.533Z,6.26
2022-12-31T02:16:00.852Z,6.28
2022-12-31T02:18:38.055Z,6.24
2022-12-31T02:21:33.956Z,6.27
2022-12-31T02:24:33.754Z,6.25
2022-12-31T02:27:08.432Z,6.25
2022-12-31T02:30:06.692Z,6.24
2022-12-31T02:32:53.470Z,6.22
2022-12-31T02:35:27.990Z,6.21
2022-12-31T02:38:07.761Z,6.22
2022-12-31T02:40:41.110Z,6.23
2022-12-31T02:43:11.323Z,6.21
2022-12-31T02:45:48.143Z,6.18
2022-12-31T02:48:32.592Z,6.28
2022-12-31T02:51:15.419Z,6.21
2022-12-31T02:54:11.712Z,6.16
2022-12-31T02:56:48.532Z,6.17
2022-12-31T02:59:39.062Z,6.25
2022-12-31T03:02:19.716Z,6.21
2022-12-31T03:04:54.364Z,6.20
2022-12-31T03:07:27.021Z,6.17
2022-12-31T03:09:57.746Z,6.21
2022-12-31T03:12:42.533Z,6.17
2022-12-31T03:15:22.599Z,6.24
2022-12-31T03:17:58.838Z,6.20
2022-12-31T03:20:45.340Z,6.23
2022-12-31T03:23:19.165Z,6.23
2022-12-31T03:25:46.911Z,6.21
2022-12-31T03:28:20.762Z,6.25
2022-12-31T03:30:52.638Z,6.22
2022-12-31T03:33:27.241Z,6.23
2022-12-31T03:35:57.443Z,6.21
2022-12-31T03:38:27.850Z,6.23
2022-12-31T03:40:58.266Z,6.26
2022-12-31T03:43:28.592Z,6.25
2022-12-31T03:45:59.973Z,6.23
2022-12-31T03:48:32.869Z,6.23
2022-12-31T03:51:03.035Z,6.23
2022-12-31T03:53:34.979Z,6.20
2022-12-31T03:56:05.216Z,6.22
2022-12-31T03:58:35.424Z,6.17
2022-12-31T04:01:05.708Z,6.18
2022-12-31T04:03:38.566Z,6.21
2022-12-31T04:06:08.903Z,6.23
2022-12-31T04:08:39.088Z,6.22
2022-12-31T04:11:09.738Z,6.24
2022-12-31T04:13:39.930Z,6.23
2022-12-31T04:16:10.271Z,6.24
2022-12-31T04:18:43.228Z,6.24
2022-12-31T04:21:13.421Z,6.26
2022-12-31T04:23:43.556Z,6.23
2022-12-31T04:26:13.762Z,6.22
2022-12-31T04:28:43.935Z,6.20
2022-12-31T04:31:14.109Z,6.20
2022-12-31T04:33:46.910Z,6.20
2022-12-31T04:36:17.103Z,6.18
2022-12-31T04:38:47.289Z,6.12
2022-12-31T04:41:21.050Z,6.10
2022-12-31T04:43:53.873Z,6.07
2022-12-31T04:46:25.892Z,6.05
2022-12-31T04:48:59.251Z,6.00
2022-12-31T04:51:30.827Z,5.99
2022-12-31T04:54:01.595Z,5.95
2022-12-31T04:56:32.214Z,5.99
2022-12-31T04:59:02.430Z,6.08
2022-12-31T05:01:33.283Z,6.06
2022-12-31T05:04:06.273Z,6.02
2022-12-31T05:06:36.543Z,5.98
2022-12-31T05:09:06.818Z,5.95
2022-12-31T05:11:38.042Z,5.89
2022-12-31T05:14:08.239Z,5.83
2022-12-31T05:16:38.483Z,5.79
2022-12-31T05:19:11.502Z,5.81
2022-12-31T05:21:41.953Z,5.85
2022-12-31T05:24:12.171Z,5.85
2022-12-31T05:26:42.343Z,5.90
2022-12-31T05:29:12.699Z,5.88
2022-12-31T05:31:42.926Z,5.88
2022-12-31T05:34:16.011Z,5.92
2022-12-31T05:36:46.229Z,5.95
2022-12-31T05:39:16.325Z,5.96
2022-12-31T05:41:46.579Z,5.99
2022-12-31T05:44:19.294Z,6.02
2022-12-31T05:46:52.460Z,6.03
2022-12-31T05:49:25.580Z,6.06
2022-12-31T05:51:56.115Z,6.06
2022-12-31T05:54:26.272Z,5.92
2022-12-31T05:56:56.557Z,5.97
2022-12-31T05:59:26.896Z,5.99
2022-12-31T06:01:57.662Z,6.02
2022-12-31T06:04:30.590Z,6.01
2022-12-31T06:07:00.807Z,6.07
2022-12-31T06:09:31.135Z,6.12
2022-12-31T06:12:01.292Z,6.08
2022-12-31T06:14:31.502Z,6.11
2022-12-31T06:17:01.800Z,6.13
2022-12-31T06:19:34.574Z,6.19
2022-12-31T06:22:04.752Z,6.21
2022-12-31T06:24:34.885Z,6.20
2022-12-31T06:27:05.145Z,6.21
2022-12-31T06:29:36.019Z,6.19
2022-12-31T06:32:06.344Z,6.18
2022-12-31T06:34:39.060Z,6.18
2022-12-31T06:37:09.318Z,6.18
2022-12-31T06:39:39.464Z,6.20
2022-12-31T06:42:09.641Z,6.23
2022-12-31T06:44:39.817Z,6.25
2022-12-31T06:47:09.947Z,6.30
2022-12-31T06:49:42.931Z,6.34
2022-12-31T06:52:13.183Z,6.35
2022-12-31T06:54:44.108Z,6.39
2022-12-31T06:57:14.899Z,6.45
2022-12-31T06:59:46.951Z,6.48
2022-12-31T07:02:49.848Z,6.55
2022-12-31T07:05:31.802Z,6.59
2022-12-31T07:08:17.176Z,6.48
2022-12-31T07:10:55.215Z,6.44
2022-12-31T07:13:53.394Z,6.39
2022-12-31T07:16:39.705Z,6.41
2022-12-31T07:19:19.953Z,6.58
2022-12-31T07:21:56.073Z,6.63
2022-12-31T07:24:27.536Z,6.68
2022-12-31T07:27:15.072Z,6.71
2022-12-31T07:30:05.205Z,6.58
2022-12-31T07:32:58.828Z,6.72
2022-12-31T07:35:37.136Z,6.79
2022-12-31T07:38:22.085Z,7.53
2022-12-31T07:41:05.545Z,7.89
2022-12-31T07:43:52.639Z,8.17
2022-12-31T07:46:35.249Z,8.50
2022-12-31T07:49:06.128Z,8.30
2022-12-31T07:51:36.899Z,8.08
2022-12-31T07:54:13.838Z,7.91
2022-12-31T07:56:45.843Z,7.87
2022-12-31T07:59:25.547Z,7.66
2022-12-31T08:02:04.440Z,7.49
2022-12-31T08:04:44.104Z,7.56
2022-12-31T08:07:22.919Z,7.55
2022-12-31T08:10:04.300Z,7.51
2022-12-31T08:12:38.393Z,7.51
2022-12-31T08:15:16.052Z,7.50
2022-12-31T08:17:47.264Z,7.48
2022-12-31T08:20:19.474Z,7.51
2022-12-31T08:23:18.237Z,7.60
2022-12-31T08:26:13.716Z,7.65
2022-12-31T08:28:56.824Z,7.72
2022-12-31T08:31:34.948Z,7.78
2022-12-31T08:34:12.772Z,7.75
2022-12-31T08:36:52.485Z,7.75
2022-12-31T08:39:34.509Z,7.72
2022-12-31T08:42:15.729Z,7.71
2022-12-31T08:44:52.541Z,7.77
2022-12-31T08:47:35.481Z,7.77
2022-12-31T08:50:16.027Z,7.78
2022-12-31T08:52:46.813Z,7.66
2022-12-31T08:55:19.683Z,7.82
2022-12-31T08:58:05.326Z,7.74
2022-12-31T09:00:36.966Z,7.91
2022-12-31T09:03:44.826Z,8.08
2022-12-31T09:06:21.970Z,8.02
2022-12-31T09:08:58.990Z,8.12
2022-12-31T09:11:36.015Z,8.33
2022-12-31T09:14:21.716Z,8.60
2022-12-31T09:17:02.290Z,8.80
2022-12-31T09:19:32.666Z,8.83
2022-12-31T09:22:03.711Z,8.60
2022-12-31T09:24:37.595Z,8.50
2022-12-31T09:27:14.366Z,8.68
2022-12-31T09:29:58.917Z,8.83
2022-12-31T09:32:42.161Z,9.05
2022-12-31T09:35:25.397Z,9.23
2022-12-31T09:38:05.292Z,9.05
2022-12-31T09:40:53.244Z,9.15
2022-12-31T09:44:07.999Z,9.11
2022-12-31T09:47:19.713Z,8.96
2022-12-31T09:50:25.646Z,8.87
2022-12-31T09:53:16.335Z,8.90
2022-12-31T09:55:52.664Z,8.71
2022-12-31T09:58:41.004Z,8.93
2022-12-31T10:01:24.560Z,8.93
2022-12-31T10:04:33.100Z,8.64
2022-12-31T10:07:12.103Z,8.88
2022-12-31T10:10:16.207Z,8.97
2022-12-31T10:13:32.546Z,9.01
2022-12-31T10:16:16.483Z,9.02
2022-12-31T10:19:05.180Z,9.03
2022-12-31T10:21:50.383Z,9.27
2022-12-31T10:24:48.600Z,9.56
2022-12-31T10:27:37.224Z,9.70
2022-12-31T10:30:18.087Z,9.78
2022-12-31T10:33:01.624Z,9.79
2022-12-31T10:35:38.829Z,9.73
2022-12-31T10:38:29.589Z,9.81
2022-12-31T10:41:34.974Z,9.73
2022-12-31T10:44:41.799Z,9.77
2022-12-31T10:47:37.011Z,9.91
2022-12-31T10:50:34.507Z,9.94
2022-12-31T10:53:44.443Z,10.01
2022-12-31T10:56:49.762Z,10.08
2022-12-31T10:59:54.269Z,10.17
2022-12-31T11:03:01.705Z,10.09
2022-12-31T11:06:03.589Z,10.08
2022-12-31T11:08:56.729Z,9.99
2022-12-31T11:11:38.750Z,9.77
2022-12-31T11:14:47.380Z,10.01
2022-12-31T11:17:40.667Z,10.08
2022-12-31T11:20:30.252Z,10.12
2022-12-31T11:23:12.625Z,10.13
2022-12-31T11:25:57.871Z,10.11
2022-12-31T11:29:04.348Z,10.13
2022-12-31T11:31:50.274Z,10.19
2022-12-31T11:34:38.307Z,10.14
2022-12-31T11:37:27.679Z,10.03
2022-12-31T11:40:05.236Z,9.93
2022-12-31T11:42:53.623Z,9.95
2022-12-31T11:45:46.962Z,9.96
2022-12-31T11:48:32.917Z,9.88
2022-12-31T11:51:25.653Z,9.78
2022-12-31T11:54:18.060Z,9.48
2022-12-31T11:56:54.044Z,9.49
2022-12-31T11:59:24.894Z,9.66
2022-12-31T12:02:01.239Z,9.67
2022-12-31T12:04:31.540Z,9.67
2022-12-31T12:07:04.552Z,9.74
2022-12-31T12:09:38.299Z,9.67
2022-12-31T12:12:09.702Z,9.67
2022-12-31T12:14:42.608Z,9.65
2022-12-31T12:17:17.630Z,9.63
2022-12-31T12:19:50.028Z,9.50
2022-12-31T12:22:26.628Z,9.36
2022-12-31T12:24:58.491Z,9.43
2022-12-31T12:27:32.641Z,9.23
2022-12-31T12:30:12.773Z,9.16
2022-12-31T12:32:54.576Z,9.20
2022-12-31T12:35:29.141Z,9.35
2022-12-31T12:38:07.692Z,9.57
2022-12-31T12:40:38.450Z,9.45
2022-12-31T12:43:09.340Z,9.61
2022-12-31T12:45:51.193Z,9.78
2022-12-31T12:48:34.201Z,9.76
2022-12-31T12:51:16.056Z,9.81
2022-12-31T12:53:59.019Z,9.83
2022-12-31T12:56:40.062Z,9.60
2022-12-31T12:59:38.070Z,9.75
2022-12-31T13:02:30.736Z,9.71
2022-12-31T13:05:13.835Z,9.59
2022-12-31T13:07:55.643Z,9.37
2022-12-31T13:10:45.691Z,9.45
2022-12-31T13:13:33.289Z,9.47
2022-12-31T13:16:14.910Z,9.40
2022-12-31T13:18:55.934Z,9.43
2022-12-31T13:21:38.016Z,9.46
2022-12-31T13:24:18.420Z,9.49
2022-12-31T13:26:58.098Z,9.53
2022-12-31T13:29:31.960Z,9.54
2022-12-31T13:32:08.663Z,9.50
2022-12-31T13:34:44.191Z,9.50
2022-12-31T13:37:25.490Z,9.44
2022-12-31T13:40:02.381Z,9.34
2022-12-31T13:42:42.791Z,9.32
2022-12-31T13:45:19.807Z,9.28
2022-12-31T13:47:55.332Z,9.21
2022-12-31T13:50:32.485Z,9.19
2022-12-31T13:53:08.596Z,9.21
2022-12-31T13:55:45.186Z,9.20
2022-12-31T13:58:28.035Z,9.18
2022-12-31T14:01:04.757Z,9.16
2022-12-31T14:03:43.295Z,9.20
2022-12-31T14:06:21.973Z,9.16
2022-12-31T14:08:52.373Z,9.13
2022-12-31T14:11:35.070Z,9.13
2022-12-31T14:14:17.401Z,8.99
2022-12-31T14:16:55.231Z,8.85
2022-12-31T14:19:41.058Z,8.94
2022-12-31T14:22:20.062Z,8.95
2022-12-31T14:24:52.619Z,8.69
2022-12-31T14:27:28.700Z,8.63
2022-12-31T14:30:05.055Z,8.58
2022-12-31T14:33:11.545Z,8.62
2022-12-31T14:36:10.769Z,8.52
2022-12-31T14:38:56.068Z,8.51
2022-12-31T14:41:46.338Z,8.49
2022-12-31T14:44:32.782Z,8.44
2022-12-31T14:47:16.379Z,8.44
2022-12-31T14:49:55.726Z,8.43
2022-12-31T14:52:32.958Z,8.41
2022-12-31T14:55:27.024Z,8.42
2022-12-31T15:00:56.252Z,8.42
2022-12-31T15:03:45.908Z,8.38
2022-12-31T15:06:34.966Z,8.40
2022-12-31T15:09:11.639Z,8.39
2022-12-31T15:11:53.175Z,8.41
2022-12-31T15:14:39.281Z,8.44
2022-12-31T15:17:22.758Z,8.46
2022-12-31T15:20:23.023Z,8.46
2022-12-31T15:22:57.096Z,8.50
2022-12-31T15:25:40.005Z,8.53
2022-12-31T15:28:27.748Z,8.51
2022-12-31T15:31:20.074Z,8.51
2022-12-31T15:34:02.877Z,8.49
2022-12-31T15:36:35.872Z,8.48
2022-12-31T15:39:28.410Z,8.45
2022-12-31T15:44:53.539Z,8.38
2022-12-31T15:47:31.220Z,8.48
2022-12-31T15:50:04.895Z,8.52
2022-12-31T15:52:44.699Z,8.53
2022-12-31T15:55:28.047Z,8.55
2022-12-31T15:58:02.575Z,8.39
2022-12-31T16:00:47.635Z,8.54
2022-12-31T16:03:25.285Z,8.53
2022-12-31T16:06:01.595Z,8.50
2022-12-31T16:08:34.692Z,8.50
2022-12-31T16:11:09.261Z,8.40
2022-12-31T16:13:43.222Z,8.46
2022-12-31T16:16:24.153Z,8.49
2022-12-31T16:18:55.181Z,8.48
2022-12-31T16:21:35.557Z,8.47
2022-12-31T16:24:08.771Z,8.46
2022-12-31T16:26:47.984Z,8.50
2022-12-31T16:29:20.294Z,8.52
2022-12-31T16:31:53.262Z,8.54
2022-12-31T16:34:26.194Z,8.50
2022-12-31T16:37:01.723Z,8.45
2022-12-31T16:39:34.785Z,8.44
2022-12-31T16:42:20.972Z,8.43
2022-12-31T16:44:52.196Z,8.38
2022-12-31T16:47:25.494Z,8.37
2022-12-31T16:50:04.181Z,8.37
2022-12-31T16:52:38.550Z,8.37
2022-12-31T16:55:12.063Z,8.15
2022-12-31T16:57:47.053Z,8.09
2022-12-31T17:00:21.242Z,8.25
2022-12-31T17:02:59.695Z,8.29
2022-12-31T17:05:30.726Z,8.33
2022-12-31T17:08:01.103Z,8.34
2022-12-31T17:10:37.542Z,8.36
2022-12-31T17:13:27.677Z,8.35
2022-12-31T17:16:00.764Z,8.34
2022-12-31T17:18:38.410Z,8.33
2022-12-31T17:21:11.699Z,8.32
2022-12-31T17:23:44.260Z,8.34
2022-12-31T17:26:16.787Z,8.32
2022-12-31T17:28:53.002Z,8.32
2022-12-31T17:31:33.291Z,8.31
2022-12-31T17:34:32.581Z,8.33
2022-12-31T17:37:21.320Z,8.39
2022-12-31T17:39:53.888Z,8.40
2022-12-31T17:42:30.061Z,8.23
2022-12-31T17:45:05.130Z,8.42
2022-12-31T17:47:41.216Z,8.43
2022-12-31T17:50:22.781Z,8.44
2022-12-31T17:52:53.119Z,8.45
2022-12-31T17:55:23.402Z,8.45
2022-12-31T17:57:56.202Z,8.41
2022-12-31T18:00:29.901Z,8.48
2022-12-31T18:03:00.229Z,8.52
2022-12-31T18:05:30.577Z,8.49
2022-12-31T18:08:00.792Z,8.49
2022-12-31T18:10:34.709Z,8.51
2022-12-31T18:13:07.891Z,8.49
2022-12-31T18:15:40.728Z,8.49
2022-12-31T18:18:25.271Z,8.47
2022-12-31T18:20:58.632Z,8.44
2022-12-31T18:23:34.349Z,8.47
2022-12-31T18:26:04.643Z,8.46
2022-12-31T18:28:35.085Z,8.46
2022-12-31T18:31:08.140Z,8.42
2022-12-31T18:33:38.375Z,8.43
2022-12-31T18:36:13.092Z,8.43
2022-12-31T18:38:44.027Z,8.40
2022-12-31T18:41:20.449Z,8.44
2022-12-31T18:43:50.948Z,8.38
2022-12-31T18:46:27.081Z,8.41
2022-12-31T18:48:57.365Z,8.41
2022-12-31T18:51:32.043Z,8.39
2022-12-31T18:54:02.903Z,8.45
2022-12-31T18:56:33.207Z,8.48
2022-12-31T18:59:03.401Z,8.50
2022-12-31T19:01:39.888Z,8.52
2022-12-31T19:04:18.802Z,8.52
2022-12-31T19:06:56.161Z,8.56
2022-12-31T19:09:45.063Z,8.55
2022-12-31T19:12:17.292Z,8.53
2022-12-31T19:14:47.411Z,8.47
2022-12-31T19:17:21.818Z,8.48
2022-12-31T19:19:52.102Z,8.45
2022-12-31T19:22:22.320Z,8.41
2022-12-31T19:24:52.860Z,8.36
2022-12-31T19:27:23.063Z,8.33
2022-12-31T19:29:53.417Z,8.26
2022-12-31T19:32:26.218Z,8.23
2022-12-31T19:34:56.542Z,8.19
2022-12-31T19:37:26.807Z,8.16
2022-12-31T19:39:57.177Z,8.13
2022-12-31T19:42:27.946Z,8.06
2022-12-31T19:44:58.100Z,8.04
2022-12-31T19:47:30.910Z,8.02
2022-12-31T19:50:01.251Z,7.96
2022-12-31T19:52:31.572Z,7.92
2022-12-31T19:55:01.743Z,7.85
2022-12-31T19:57:31.940Z,7.77
2022-12-31T20:00:02.499Z,7.74
2022-12-31T20:02:36.233Z,7.68
2022-12-31T20:05:06.937Z,7.64
2022-12-31T20:07:37.200Z,7.55
2022-12-31T20:10:11.029Z,7.57
2022-12-31T20:12:44.511Z,7.55
2022-12-31T20:15:15.024Z,7.50
2022-12-31T20:17:47.846Z,7.48
2022-12-31T20:20:18.253Z,7.43
2022-12-31T20:22:48.675Z,7.40
2022-12-31T20:25:19.210Z,7.38
2022-12-31T20:27:49.440Z,7.32
2022-12-31T20:30:23.222Z,7.28
2022-12-31T20:32:56.090Z,7.28
2022-12-31T20:35:26.329Z,7.24
2022-12-31T20:37:56.794Z,7.24
2022-12-31T20:40:27.421Z,7.19
2022-12-31T20:42:57.997Z,7.15
2022-12-31T20:45:28.222Z,7.10
2022-12-31T20:48:01.159Z,7.07
2022-12-31T20:50:31.457Z,7.06
2022-12-31T20:53:02.151Z,7.03
2022-12-31T20:55:32.801Z,7.00
2022-12-31T20:58:04.338Z,6.97
2022-12-31T21:00:34.500Z,6.94
2022-12-31T21:03:23.778Z,6.92
2022-12-31T21:05:57.976Z,6.86
2022-12-31T21:08:34.347Z,6.83
2022-12-31T21:11:25.736Z,6.77
2022-12-31T21:13:53.392Z,6.74
2022-12-31T21:16:23.668Z,6.77
2022-12-31T21:18:57.000Z,6.80
2022-12-31T21:21:27.711Z,6.78
2022-12-31T21:23:57.939Z,6.75
2022-12-31T21:26:30.856Z,6.70
2022-12-31T21:29:01.421Z,6.64
2022-12-31T21:31:31.612Z,6.63
2022-12-31T21:34:04.476Z,6.58
2022-12-31T21:36:34.783Z,6.62
2022-12-31T21:39:05.066Z,6.57
2022-12-31T21:41:47.615Z,6.62
2022-12-31T21:44:17.839Z,6.61
2022-12-31T21:47:25.130Z,6.58
2022-12-31T21:49:43.597Z,6.56
2022-12-31T21:52:30.807Z,6.58
2022-12-31T21:55:15.049Z,6.52
2022-12-31T21:58:24.229Z,6.53
2022-12-31T22:00:48.858Z,6.48
2022-12-31T22:03:28.482Z,6.43
2022-12-31T22:06:09.135Z,6.40
2022-12-31T22:08:40.276Z,6.32
2022-12-31T22:11:11.549Z,6.28
2022-12-31T22:13:42.292Z,6.28
2022-12-31T22:16:13.296Z,6.26
2022-12-31T22:18:45.598Z,6.24
2022-12-31T22:21:20.713Z,6.24
2022-12-31T22:23:52.582Z,6.21
2022-12-31T22:26:24.575Z,6.18
2022-12-31T22:28:59.224Z,6.10
2022-12-31T22:31:31.713Z,6.12
2022-12-31T22:34:02.296Z,6.01
2022-12-31T22:36:35.203Z,6.06
2022-12-31T22:39:05.460Z,6.06
2022-12-31T22:41:36.787Z,6.10
2022-12-31T22:44:06.990Z,6.12
2022-12-31T22:46:40.702Z,6.11
2022-12-31T22:49:13.560Z,6.05
2022-12-31T22:51:57.026Z,6.06
2022-12-31T22:54:30.009Z,6.00
2022-12-31T22:57:01.346Z,5.97
2022-12-31T22:59:31.569Z,5.90
2022-12-31T23:02:01.888Z,5.89
2022-12-31T23:04:32.301Z,5.88
2022-12-31T23:07:05.166Z,5.90
2022-12-31T23:09:48.407Z,5.88
2022-12-31T23:12:18.741Z,5.84
2022-12-31T23:15:01.342Z,5.83
2022-12-31T23:17:43.835Z,5.82
2022-12-31T23:20:29.583Z,5.77
2022-12-31T23:23:08.810Z,5.75
2022-12-31T23:25:44.292Z,5.72
2022-12-31T23:28:16.732Z,5.71
2022-12-31T23:30:47.432Z,5.66
2022-12-31T23:33:20.390Z,5.64
2022-12-31T23:35:52.004Z,5.62
2022-12-31T23:38:24.803Z,5.64
2022-12-31T23:40:55.314Z,5.63
2022-12-31T23:43:25.875Z,5.62
2022-12-31T23:45:56.446Z,5.63
2022-12-31T23:48:26.672Z,5.62
2022-12-31T23:50:56.816Z,5.58
2022-12-31T23:53:29.678Z,5.54
2022-12-31T23:56:13.897Z,5.51
2022-12-31T23:58:46.986Z,5.44
